Orangeburg Municipal Airport
KOGB : rendu visible

Aérodrome :











RETROUVEZ-NOUS SUR...

 
LOGIN :

S'inscrire | Disclaimer

   EN    FR    IT 

 









Légende :    VFR   VFR Marginal   IFR   IFR Intensif   IFR Très Intensif
Visi : 
Plafond : 
>= 8 km
>= 3000ft
5 à 8 km
1000 à 3000 ft
1500m à 5 km
500 à 1000 ft
800 à 1500m
200 à 500 ft
< 800m
< 200 ft
Symboles :   Orages  Brouillard  Fortes neiges  Fortes précipitations  Vent > 20 kt






- Altitude de l'aérodrome : 195 ft


KOGB - Orangeburg Municipal

DERNIER METAR :
  • 081253Z AUTO 25009KT 10SM OVC026 19/15 A2986 RMK AO2 SLP110 T01940150

METARs EXPIRÉS :
  • 081153Z AUTO 22007KT 10SM CLR 18/14 A2985 RMK AO2 SLP106 70004 T01780144 10189 20161 55000
  • 081053Z AUTO 24007KT 10SM FEW047 17/14 A2984 RMK AO2 SLP103 T01670139
  • 080953Z AUTO 22004KT 10SM SCT043 SCT060 17/14 A2984 RMK AO2 SLP104 T01670139

TAF KOGB
Valide du 08 à 12h jusqu'au 09 à 12h UTC


081150Z 0812/0912 24007KT P6SM SCT020 BKN050
TEMPO 0813/0816 BKN025
FM081700 26011G18KT P6SM SCT060 BKN150
FM090000 22006KT P6SM BKN250



MET'MAP, la Météo Aéronautique d'un coup d'oeil ! - Copyright ORBIFLY Décembre 2007 - Disclaimer

ORBIFLY MET'MAP TEAM :

Programmation & Développement : Alexandra Zaïnal
Sur une idée originale de : Baudouin d'Aumeries
Assistance à la programmation : Marc-Olivier Méhu
Soutien technique & logistique : Manuel Goepfert

Contact : metmap@orbifly.com




SOURCES & CREDITS :

   NOAA       Earth
Advisory